sensor_id;sensor_type;location;lat;lon;timestamp;temperature;humidity
44982;DHT22;30716;41.740;-70.400;2022-10-16T00:01:11;24.80;61.80
44982;DHT22;30716;41.740;-70.400;2022-10-16T00:03:38;24.80;61.80
44982;DHT22;30716;41.740;-70.400;2022-10-16T00:06:06;24.80;61.80
44982;DHT22;30716;41.740;-70.400;2022-10-16T00:08:33;24.80;61.80
44982;DHT22;30716;41.740;-70.400;2022-10-16T00:11:05;24.80;61.80
44982;DHT22;30716;41.740;-70.400;2022-10-16T00:13:32;24.80;61.80
44982;DHT22;30716;41.740;-70.400;2022-10-16T00:15:59;24.80;61.80
44982;DHT22;30716;41.740;-70.400;2022-10-16T00:18:27;24.80;61.80
44982;DHT22;30716;41.740;-70.400;2022-10-16T00:20:53;24.80;61.80
44982;DHT22;30716;41.740;-70.400;2022-10-16T00:23:20;24.80;61.80
44982;DHT22;30716;41.740;-70.400;2022-10-16T00:25:55;24.80;61.80
44982;DHT22;30716;41.740;-70.400;2022-10-16T00:28:22;24.80;61.80
44982;DHT22;30716;41.740;-70.400;2022-10-16T00:30:48;24.80;61.80
44982;DHT22;30716;41.740;-70.400;2022-10-16T00:33:14;24.80;61.80
44982;DHT22;30716;41.740;-70.400;2022-10-16T00:35:41;24.80;61.80
44982;DHT22;30716;41.740;-70.400;2022-10-16T00:38:07;24.80;61.80
44982;DHT22;30716;41.740;-70.400;2022-10-16T00:40:33;24.80;61.80
44982;DHT22;30716;41.740;-70.400;2022-10-16T00:42:59;24.80;61.80
44982;DHT22;30716;41.740;-70.400;2022-10-16T00:45:25;24.80;61.80
44982;DHT22;30716;41.740;-70.400;2022-10-16T00:47:53;24.80;61.80
44982;DHT22;30716;41.740;-70.400;2022-10-16T00:50:46;24.80;61.80
44982;DHT22;30716;41.740;-70.400;2022-10-16T00:53:12;24.80;61.80
44982;DHT22;30716;41.740;-70.400;2022-10-16T00:55:38;24.80;61.80
44982;DHT22;30716;41.740;-70.400;2022-10-16T00:58:05;24.80;61.80
44982;DHT22;30716;41.740;-70.400;2022-10-16T01:00:31;24.80;61.80
44982;DHT22;30716;41.740;-70.400;2022-10-16T01:02:59;24.80;62.60
44982;DHT22;30716;41.740;-70.400;2022-10-16T01:05:35;24.80;61.80
44982;DHT22;30716;41.740;-70.400;2022-10-16T01:08:17;24.80;61.80
44982;DHT22;30716;41.740;-70.400;2022-10-16T01:10:54;24.80;61.80
44982;DHT22;30716;41.740;-70.400;2022-10-16T01:13:32;24.80;61.80
44982;DHT22;30716;41.740;-70.400;2022-10-16T01:16:07;24.80;61.80
44982;DHT22;30716;41.740;-70.400;2022-10-16T01:19:17;24.70;61.70
44982;DHT22;30716;41.740;-70.400;2022-10-16T01:21:47;24.80;61.80
44982;DHT22;30716;41.740;-70.400;2022-10-16T01:24:39;24.80;61.80
44982;DHT22;30716;41.740;-70.400;2022-10-16T01:27:24;24.80;61.80
44982;DHT22;30716;41.740;-70.400;2022-10-16T01:29:59;24.80;61.80
44982;DHT22;30716;41.740;-70.400;2022-10-16T01:35:30;24.80;61.80
44982;DHT22;30716;41.740;-70.400;2022-10-16T01:40:51;24.80;61.80
44982;DHT22;30716;41.740;-70.400;2022-10-16T01:43:25;24.80;61.80
44982;DHT22;30716;41.740;-70.400;2022-10-16T01:45:53;24.80;61.80
44982;DHT22;30716;41.740;-70.400;2022-10-16T01:48:22;24.80;61.80
44982;DHT22;30716;41.740;-70.400;2022-10-16T01:50:59;24.80;61.80
44982;DHT22;30716;41.740;-70.400;2022-10-16T01:53:27;24.80;61.80
44982;DHT22;30716;41.740;-70.400;2022-10-16T01:55:55;24.80;61.80
44982;DHT22;30716;41.740;-70.400;2022-10-16T01:58:22;24.80;61.80
44982;DHT22;30716;41.740;-70.400;2022-10-16T02:00:50;24.80;61.80
44982;DHT22;30716;41.740;-70.400;2022-10-16T02:03:19;24.80;61.80
44982;DHT22;30716;41.740;-70.400;2022-10-16T02:05:55;24.80;61.80
44982;DHT22;30716;41.740;-70.400;2022-10-16T02:08:25;24.80;61.80
44982;DHT22;30716;41.740;-70.400;2022-10-16T02:10:55;24.80;61.80
44982;DHT22;30716;41.740;-70.400;2022-10-16T02:13:34;24.80;61.80
44982;DHT22;30716;41.740;-70.400;2022-10-16T02:16:02;24.80;61.80
44982;DHT22;30716;41.740;-70.400;2022-10-16T02:18:29;24.80;61.80
44982;DHT22;30716;41.740;-70.400;2022-10-16T02:24:03;24.80;61.80
44982;DHT22;30716;41.740;-70.400;2022-10-16T02:26:49;24.80;61.80
44982;DHT22;30716;41.740;-70.400;2022-10-16T02:29:24;24.80;61.80
44982;DHT22;30716;41.740;-70.400;2022-10-16T02:31:59;24.80;61.80
44982;DHT22;30716;41.740;-70.400;2022-10-16T02:34:28;24.80;61.80
44982;DHT22;30716;41.740;-70.400;2022-10-16T02:36:56;24.80;61.80
44982;DHT22;30716;41.740;-70.400;2022-10-16T02:39:24;24.80;61.80
44982;DHT22;30716;41.740;-70.400;2022-10-16T02:41:50;24.80;61.80
44982;DHT22;30716;41.740;-70.400;2022-10-16T02:44:16;24.80;61.80
44982;DHT22;30716;41.740;-70.400;2022-10-16T02:46:42;24.80;61.80
44982;DHT22;30716;41.740;-70.400;2022-10-16T02:49:09;24.80;61.80
44982;DHT22;30716;41.740;-70.400;2022-10-16T02:51:35;24.80;61.80
44982;DHT22;30716;41.740;-70.400;2022-10-16T02:54:02;24.80;61.80
44982;DHT22;30716;41.740;-70.400;2022-10-16T02:56:28;24.80;61.80
44982;DHT22;30716;41.740;-70.400;2022-10-16T02:58:55;24.80;61.80
44982;DHT22;30716;41.740;-70.400;2022-10-16T03:01:21;24.80;61.90
44982;DHT22;30716;41.740;-70.400;2022-10-16T03:03:47;24.80;61.90
44982;DHT22;30716;41.740;-70.400;2022-10-16T03:06:13;24.80;61.80
44982;DHT22;30716;41.740;-70.400;2022-10-16T03:08:39;24.80;61.80
44982;DHT22;30716;41.740;-70.400;2022-10-16T03:11:05;24.80;61.80
44982;DHT22;30716;41.740;-70.400;2022-10-16T03:13:32;24.80;61.80
44982;DHT22;30716;41.740;-70.400;2022-10-16T03:15:58;24.80;61.90
44982;DHT22;30716;41.740;-70.400;2022-10-16T03:18:24;24.80;61.80
44982;DHT22;30716;41.740;-70.400;2022-10-16T03:20:50;24.80;61.80
44982;DHT22;30716;41.740;-70.400;2022-10-16T03:23:16;24.80;61.80
44982;DHT22;30716;41.740;-70.400;2022-10-16T03:25:42;24.80;61.80
44982;DHT22;30716;41.740;-70.400;2022-10-16T03:28:08;24.80;61.80
44982;DHT22;30716;41.740;-70.400;2022-10-16T03:30:34;24.80;61.80
44982;DHT22;30716;41.740;-70.400;2022-10-16T03:33:00;24.80;61.80
44982;DHT22;30716;41.740;-70.400;2022-10-16T03:35:27;24.80;61.80
44982;DHT22;30716;41.740;-70.400;2022-10-16T03:37:53;24.80;61.80
44982;DHT22;30716;41.740;-70.400;2022-10-16T03:40:19;24.80;61.80
44982;DHT22;30716;41.740;-70.400;2022-10-16T03:42:45;24.80;61.80
44982;DHT22;30716;41.740;-70.400;2022-10-16T03:45:11;24.80;61.80
44982;DHT22;30716;41.740;-70.400;2022-10-16T03:47:37;24.80;61.80
44982;DHT22;30716;41.740;-70.400;2022-10-16T03:50:04;24.80;61.80
44982;DHT22;30716;41.740;-70.400;2022-10-16T03:52:30;24.80;61.80
44982;DHT22;30716;41.740;-70.400;2022-10-16T03:54:57;24.80;61.80
44982;DHT22;30716;41.740;-70.400;2022-10-16T03:57:24;24.80;61.80
44982;DHT22;30716;41.740;-70.400;2022-10-16T03:59:50;24.80;61.80
44982;DHT22;30716;41.740;-70.400;2022-10-16T04:02:16;24.80;61.80
44982;DHT22;30716;41.740;-70.400;2022-10-16T04:04:42;24.80;61.80
44982;DHT22;30716;41.740;-70.400;2022-10-16T04:07:08;24.80;61.80
44982;DHT22;30716;41.740;-70.400;2022-10-16T04:09:35;24.80;61.80
44982;DHT22;30716;41.740;-70.400;2022-10-16T04:12:01;24.80;61.80
44982;DHT22;30716;41.740;-70.400;2022-10-16T04:14:27;24.80;61.80
44982;DHT22;30716;41.740;-70.400;2022-10-16T04:16:53;24.80;61.80
44982;DHT22;30716;41.740;-70.400;2022-10-16T04:19:19;24.80;61.80
44982;DHT22;30716;41.740;-70.400;2022-10-16T04:21:45;24.80;61.80
44982;DHT22;30716;41.740;-70.400;2022-10-16T04:24:11;24.80;61.80
44982;DHT22;30716;41.740;-70.400;2022-10-16T04:26:38;24.80;61.80
44982;DHT22;30716;41.740;-70.400;2022-10-16T04:29:04;24.80;61.70
44982;DHT22;30716;41.740;-70.400;2022-10-16T04:31:30;24.80;61.80
44982;DHT22;30716;41.740;-70.400;2022-10-16T04:33:56;24.80;61.80
44982;DHT22;30716;41.740;-70.400;2022-10-16T04:36:22;24.80;61.80
44982;DHT22;30716;41.740;-70.400;2022-10-16T04:38:48;24.80;61.80
44982;DHT22;30716;41.740;-70.400;2022-10-16T04:41:14;24.80;61.80
44982;DHT22;30716;41.740;-70.400;2022-10-16T04:43:40;24.80;61.80
44982;DHT22;30716;41.740;-70.400;2022-10-16T04:46:06;24.80;61.80
44982;DHT22;30716;41.740;-70.400;2022-10-16T04:48:33;24.80;61.80
44982;DHT22;30716;41.740;-70.400;2022-10-16T04:50:59;24.80;61.80
44982;DHT22;30716;41.740;-70.400;2022-10-16T04:53:25;24.80;61.80
44982;DHT22;30716;41.740;-70.400;2022-10-16T04:55:51;24.80;61.80
44982;DHT22;30716;41.740;-70.400;2022-10-16T04:58:21;24.80;61.80
44982;DHT22;30716;41.740;-70.400;2022-10-16T05:00:47;24.80;61.70
44982;DHT22;30716;41.740;-70.400;2022-10-16T05:03:13;24.80;61.70
44982;DHT22;30716;41.740;-70.400;2022-10-16T05:05:46;24.80;61.70
44982;DHT22;30716;41.740;-70.400;2022-10-16T05:08:14;24.70;61.60
44982;DHT22;30716;41.740;-70.400;2022-10-16T05:10:44;24.80;61.80
44982;DHT22;30716;41.740;-70.400;2022-10-16T05:13:10;24.80;61.80
44982;DHT22;30716;41.740;-70.400;2022-10-16T05:15:37;24.70;61.60
44982;DHT22;30716;41.740;-70.400;2022-10-16T05:18:03;24.70;61.40
44982;DHT22;30716;41.740;-70.400;2022-10-16T05:20:29;24.70;61.20
44982;DHT22;30716;41.740;-70.400;2022-10-16T05:22:55;24.70;61.20
44982;DHT22;30716;41.740;-70.400;2022-10-16T05:25:21;24.80;61.50
44982;DHT22;30716;41.740;-70.400;2022-10-16T05:27:48;24.80;61.80
44982;DHT22;30716;41.740;-70.400;2022-10-16T05:30:17;24.70;61.50
44982;DHT22;30716;41.740;-70.400;2022-10-16T05:32:50;24.70;61.60
44982;DHT22;30716;41.740;-70.400;2022-10-16T05:35:18;24.70;61.70
44982;DHT22;30716;41.740;-70.400;2022-10-16T05:37:44;24.70;61.60
44982;DHT22;30716;41.740;-70.400;2022-10-16T05:40:11;24.70;61.50
44982;DHT22;30716;41.740;-70.400;2022-10-16T05:42:38;24.70;61.60
44982;DHT22;30716;41.740;-70.400;2022-10-16T05:45:06;24.70;62.50
44982;DHT22;30716;41.740;-70.400;2022-10-16T05:47:32;24.70;61.70
44982;DHT22;30716;41.740;-70.400;2022-10-16T05:49:58;24.70;61.70
44982;DHT22;30716;41.740;-70.400;2022-10-16T05:52:24;24.70;61.70
44982;DHT22;30716;41.740;-70.400;2022-10-16T05:54:50;24.70;61.80
44982;DHT22;30716;41.740;-70.400;2022-10-16T05:57:16;24.70;61.70
44982;DHT22;30716;41.740;-70.400;2022-10-16T05:59:42;24.70;61.70
44982;DHT22;30716;41.740;-70.400;2022-10-16T06:02:13;24.60;61.60
44982;DHT22;30716;41.740;-70.400;2022-10-16T06:04:39;24.70;62.40
44982;DHT22;30716;41.740;-70.400;2022-10-16T06:07:05;24.60;61.60
44982;DHT22;30716;41.740;-70.400;2022-10-16T06:09:31;24.60;61.60
44982;DHT22;30716;41.740;-70.400;2022-10-16T06:11:57;24.60;61.60
44982;DHT22;30716;41.740;-70.400;2022-10-16T06:14:24;24.70;61.70
44982;DHT22;30716;41.740;-70.400;2022-10-16T06:16:50;24.70;61.70
44982;DHT22;30716;41.740;-70.400;2022-10-16T06:19:16;24.70;61.60
44982;DHT22;30716;41.740;-70.400;2022-10-16T06:21:43;24.60;61.60
44982;DHT22;30716;41.740;-70.400;2022-10-16T06:24:09;24.60;61.60
44982;DHT22;30716;41.740;-70.400;2022-10-16T06:26:36;24.60;61.60
44982;DHT22;30716;41.740;-70.400;2022-10-16T06:29:03;24.60;61.60
44982;DHT22;30716;41.740;-70.400;2022-10-16T06:31:29;24.60;61.60
44982;DHT22;30716;41.740;-70.400;2022-10-16T06:33:57;24.60;61.60
44982;DHT22;30716;41.740;-70.400;2022-10-16T06:36:24;24.60;61.60
44982;DHT22;30716;41.740;-70.400;2022-10-16T06:38:50;24.60;61.60
44982;DHT22;30716;41.740;-70.400;2022-10-16T06:41:19;24.60;61.60
44982;DHT22;30716;41.740;-70.400;2022-10-16T06:43:45;24.60;61.60
44982;DHT22;30716;41.740;-70.400;2022-10-16T06:46:14;24.60;61.60
44982;DHT22;30716;41.740;-70.400;2022-10-16T06:48:41;24.60;61.70
44982;DHT22;30716;41.740;-70.400;2022-10-16T06:51:10;24.60;61.60
44982;DHT22;30716;41.740;-70.400;2022-10-16T06:53:39;24.60;61.60
44982;DHT22;30716;41.740;-70.400;2022-10-16T06:56:12;24.60;61.60
44982;DHT22;30716;41.740;-70.400;2022-10-16T06:58:39;24.60;61.60
44982;DHT22;30716;41.740;-70.400;2022-10-16T07:01:05;24.60;61.60
44982;DHT22;30716;41.740;-70.400;2022-10-16T07:03:32;24.60;61.60
44982;DHT22;30716;41.740;-70.400;2022-10-16T07:06:02;24.60;61.60
44982;DHT22;30716;41.740;-70.400;2022-10-16T07:08:31;24.60;61.60
44982;DHT22;30716;41.740;-70.400;2022-10-16T07:11:03;24.60;61.60
44982;DHT22;30716;41.740;-70.400;2022-10-16T07:13:29;24.60;61.60
44982;DHT22;30716;41.740;-70.400;2022-10-16T07:15:55;24.60;61.60
44982;DHT22;30716;41.740;-70.400;2022-10-16T07:18:21;24.60;61.60
44982;DHT22;30716;41.740;-70.400;2022-10-16T07:20:52;24.60;61.60
44982;DHT22;30716;41.740;-70.400;2022-10-16T07:23:18;24.60;61.60
44982;DHT22;30716;41.740;-70.400;2022-10-16T07:25:44;24.60;61.60
44982;DHT22;30716;41.740;-70.400;2022-10-16T07:28:10;24.60;61.60
44982;DHT22;30716;41.740;-70.400;2022-10-16T07:30:36;24.70;61.70
44982;DHT22;30716;41.740;-70.400;2022-10-16T07:33:03;24.70;61.50
44982;DHT22;30716;41.740;-70.400;2022-10-16T07:35:29;24.60;61.30
44982;DHT22;30716;41.740;-70.400;2022-10-16T07:37:55;24.60;61.50
44982;DHT22;30716;41.740;-70.400;2022-10-16T07:40:21;24.60;61.40
44982;DHT22;30716;41.740;-70.400;2022-10-16T07:42:47;24.70;61.40
44982;DHT22;30716;41.740;-70.400;2022-10-16T07:45:13;24.60;61.50
44982;DHT22;30716;41.740;-70.400;2022-10-16T07:47:39;24.60;61.30
44982;DHT22;30716;41.740;-70.400;2022-10-16T07:50:05;24.70;61.30
44982;DHT22;30716;41.740;-70.400;2022-10-16T07:52:31;24.60;61.30
44982;DHT22;30716;41.740;-70.400;2022-10-16T07:54:58;24.60;61.50
44982;DHT22;30716;41.740;-70.400;2022-10-16T07:57:24;24.60;61.30
44982;DHT22;30716;41.740;-70.400;2022-10-16T07:59:50;24.60;61.10
44982;DHT22;30716;41.740;-70.400;2022-10-16T08:02:16;24.60;61.20
44982;DHT22;30716;41.740;-70.400;2022-10-16T08:04:42;24.60;61.20
44982;DHT22;30716;41.740;-70.400;2022-10-16T08:07:08;24.70;61.50
44982;DHT22;30716;41.740;-70.400;2022-10-16T08:09:34;24.70;61.30
44982;DHT22;30716;41.740;-70.400;2022-10-16T08:12:00;24.70;61.20
44982;DHT22;30716;41.740;-70.400;2022-10-16T08:14:27;24.70;61.20
44982;DHT22;30716;41.740;-70.400;2022-10-16T08:16:53;24.60;61.20
44982;DHT22;30716;41.740;-70.400;2022-10-16T08:19:20;24.60;61.00
44982;DHT22;30716;41.740;-70.400;2022-10-16T08:21:48;24.60;60.90
44982;DHT22;30716;41.740;-70.400;2022-10-16T08:24:15;24.60;60.90
44982;DHT22;30716;41.740;-70.400;2022-10-16T08:26:41;24.60;61.10
44982;DHT22;30716;41.740;-70.400;2022-10-16T08:29:07;24.60;61.10
44982;DHT22;30716;41.740;-70.400;2022-10-16T08:31:33;24.60;60.90
44982;DHT22;30716;41.740;-70.400;2022-10-16T08:33:59;24.60;61.00
44982;DHT22;30716;41.740;-70.400;2022-10-16T08:36:25;24.60;61.00
44982;DHT22;30716;41.740;-70.400;2022-10-16T08:38:51;24.60;60.90
44982;DHT22;30716;41.740;-70.400;2022-10-16T08:47:17;24.60;61.20
44982;DHT22;30716;41.740;-70.400;2022-10-16T08:50:00;24.60;61.30
44982;DHT22;30716;41.740;-70.400;2022-10-16T08:52:34;24.60;61.60
44982;DHT22;30716;41.740;-70.400;2022-10-16T08:55:01;24.60;61.50
44982;DHT22;30716;41.740;-70.400;2022-10-16T08:57:29;24.60;61.60
44982;DHT22;30716;41.740;-70.400;2022-10-16T09:00:00;24.60;61.60
44982;DHT22;30716;41.740;-70.400;2022-10-16T09:02:40;24.60;61.50
44982;DHT22;30716;41.740;-70.400;2022-10-16T09:05:49;24.60;61.60
44982;DHT22;30716;41.740;-70.400;2022-10-16T09:16:53;24.60;61.50
44982;DHT22;30716;41.740;-70.400;2022-10-16T09:19:38;24.60;61.40
44982;DHT22;30716;41.740;-70.400;2022-10-16T09:22:14;24.60;61.30
44982;DHT22;30716;41.740;-70.400;2022-10-16T09:24:41;24.60;61.10
44982;DHT22;30716;41.740;-70.400;2022-10-16T09:27:14;24.60;61.10
44982;DHT22;30716;41.740;-70.400;2022-10-16T09:29:41;24.60;61.00
44982;DHT22;30716;41.740;-70.400;2022-10-16T09:32:14;24.60;61.10
44982;DHT22;30716;41.740;-70.400;2022-10-16T09:35:01;24.60;61.00
44982;DHT22;30716;41.740;-70.400;2022-10-16T09:37:27;24.60;61.10
44982;DHT22;30716;41.740;-70.400;2022-10-16T09:39:54;24.60;61.00
44982;DHT22;30716;41.740;-70.400;2022-10-16T09:42:41;24.60;61.00
44982;DHT22;30716;41.740;-70.400;2022-10-16T09:45:20;24.60;61.00
44982;DHT22;30716;41.740;-70.400;2022-10-16T09:47:47;24.60;61.00
44982;DHT22;30716;41.740;-70.400;2022-10-16T09:50:29;24.60;61.00
44982;DHT22;30716;41.740;-70.400;2022-10-16T09:53:12;24.60;61.00
44982;DHT22;30716;41.740;-70.400;2022-10-16T09:55:49;24.60;61.10
44982;DHT22;30716;41.740;-70.400;2022-10-16T09:58:16;24.60;61.10
44982;DHT22;30716;41.740;-70.400;2022-10-16T10:00:49;24.60;61.00
44982;DHT22;30716;41.740;-70.400;2022-10-16T10:03:36;24.60;61.00
44982;DHT22;30716;41.740;-70.400;2022-10-16T10:06:26;24.60;60.90
44982;DHT22;30716;41.740;-70.400;2022-10-16T10:09:20;24.60;60.90
44982;DHT22;30716;41.740;-70.400;2022-10-16T10:11:55;24.60;61.00
44982;DHT22;30716;41.740;-70.400;2022-10-16T10:22:43;24.60;60.70
44982;DHT22;30716;41.740;-70.400;2022-10-16T10:33:24;24.60;60.80
44982;DHT22;30716;41.740;-70.400;2022-10-16T10:39:00;24.60;60.90
44982;DHT22;30716;41.740;-70.400;2022-10-16T10:47:10;24.50;60.80
44982;DHT22;30716;41.740;-70.400;2022-10-16T11:03:53;24.60;61.10
44982;DHT22;30716;41.740;-70.400;2022-10-16T11:06:51;24.60;61.20
44982;DHT22;30716;41.740;-70.400;2022-10-16T11:09:19;24.60;61.00
44982;DHT22;30716;41.740;-70.400;2022-10-16T11:12:05;24.60;61.00
44982;DHT22;30716;41.740;-70.400;2022-10-16T11:15:17;24.60;61.00
44982;DHT22;30716;41.740;-70.400;2022-10-16T11:18:04;24.60;61.00
44982;DHT22;30716;41.740;-70.400;2022-10-16T11:20:37;24.60;60.90
44982;DHT22;30716;41.740;-70.400;2022-10-16T11:23:18;24.60;60.80
44982;DHT22;30716;41.740;-70.400;2022-10-16T11:25:48;24.60;60.70
44982;DHT22;30716;41.740;-70.400;2022-10-16T11:28:32;24.60;60.70
44982;DHT22;30716;41.740;-70.400;2022-10-16T11:31:17;24.60;60.60
44982;DHT22;30716;41.740;-70.400;2022-10-16T11:36:40;24.60;60.60
44982;DHT22;30716;41.740;-70.400;2022-10-16T11:39:22;24.60;60.60
44982;DHT22;30716;41.740;-70.400;2022-10-16T11:50:21;24.70;60.60
44982;DHT22;30716;41.740;-70.400;2022-10-16T11:53:07;24.70;60.60
44982;DHT22;30716;41.740;-70.400;2022-10-16T11:55:44;24.70;60.50
44982;DHT22;30716;41.740;-70.400;2022-10-16T11:58:20;24.70;60.60
44982;DHT22;30716;41.740;-70.400;2022-10-16T12:01:14;24.60;60.50
44982;DHT22;30716;41.740;-70.400;2022-10-16T12:04:02;24.70;60.50
44982;DHT22;30716;41.740;-70.400;2022-10-16T12:06:39;24.70;60.50
44982;DHT22;30716;41.740;-70.400;2022-10-16T12:09:20;24.70;60.50
44982;DHT22;30716;41.740;-70.400;2022-10-16T12:11:47;24.60;60.40
44982;DHT22;30716;41.740;-70.400;2022-10-16T12:17:04;24.70;60.50
44982;DHT22;30716;41.740;-70.400;2022-10-16T12:20:18;24.70;60.50
44982;DHT22;30716;41.740;-70.400;2022-10-16T12:22:51;24.60;60.40
44982;DHT22;30716;41.740;-70.400;2022-10-16T12:25:39;24.70;60.40
44982;DHT22;30716;41.740;-70.400;2022-10-16T12:30:42;24.60;60.30
44982;DHT22;30716;41.740;-70.400;2022-10-16T12:33:36;24.60;61.10
44982;DHT22;30716;41.740;-70.400;2022-10-16T12:36:13;24.60;60.30
44982;DHT22;30716;41.740;-70.400;2022-10-16T12:38:51;24.60;60.40
44982;DHT22;30716;41.740;-70.400;2022-10-16T12:41:35;24.60;60.50
44982;DHT22;30716;41.740;-70.400;2022-10-16T12:44:20;24.60;60.30
44982;DHT22;30716;41.740;-70.400;2022-10-16T12:46:47;24.60;60.40
44982;DHT22;30716;41.740;-70.400;2022-10-16T12:51:41;24.60;60.30
44982;DHT22;30716;41.740;-70.400;2022-10-16T12:54:15;24.60;60.50
44982;DHT22;30716;41.740;-70.400;2022-10-16T13:00:12;24.60;60.40
44982;DHT22;30716;41.740;-70.400;2022-10-16T13:06:05;24.60;60.50
44982;DHT22;30716;41.740;-70.400;2022-10-16T13:08:41;24.60;60.50
44982;DHT22;30716;41.740;-70.400;2022-10-16T13:12:25;24.60;60.60
44982;DHT22;30716;41.740;-70.400;2022-10-16T13:20:03;24.60;60.60
44982;DHT22;30716;41.740;-70.400;2022-10-16T13:22:51;24.60;60.50
44982;DHT22;30716;41.740;-70.400;2022-10-16T13:28:13;24.60;60.40
44982;DHT22;30716;41.740;-70.400;2022-10-16T13:30:44;24.60;60.40
44982;DHT22;30716;41.740;-70.400;2022-10-16T13:35:55;24.60;60.50
44982;DHT22;30716;41.740;-70.400;2022-10-16T13:38:26;24.60;60.50
44982;DHT22;30716;41.740;-70.400;2022-10-16T13:40:55;24.60;60.50
44982;DHT22;30716;41.740;-70.400;2022-10-16T13:43:51;24.60;60.50
44982;DHT22;30716;41.740;-70.400;2022-10-16T13:46:19;24.60;60.50
44982;DHT22;30716;41.740;-70.400;2022-10-16T13:48:57;24.60;60.60
44982;DHT22;30716;41.740;-70.400;2022-10-16T13:51:24;24.60;60.60
44982;DHT22;30716;41.740;-70.400;2022-10-16T13:53:50;24.60;60.60
44982;DHT22;30716;41.740;-70.400;2022-10-16T13:56:20;24.60;60.50
44982;DHT22;30716;41.740;-70.400;2022-10-16T13:58:57;24.60;60.50
44982;DHT22;30716;41.740;-70.400;2022-10-16T14:01:29;24.60;60.50
44982;DHT22;30716;41.740;-70.400;2022-10-16T14:04:08;24.60;60.60
44982;DHT22;30716;41.740;-70.400;2022-10-16T14:06:36;24.60;60.60
44982;DHT22;30716;41.740;-70.400;2022-10-16T14:09:35;24.60;60.50
44982;DHT22;30716;41.740;-70.400;2022-10-16T14:12:09;24.60;60.50
44982;DHT22;30716;41.740;-70.400;2022-10-16T14:14:45;24.60;60.40
44982;DHT22;30716;41.740;-70.400;2022-10-16T14:17:26;24.60;60.50
44982;DHT22;30716;41.740;-70.400;2022-10-16T14:19:55;24.60;60.40
44982;DHT22;30716;41.740;-70.400;2022-10-16T14:22:37;24.60;60.50
44982;DHT22;30716;41.740;-70.400;2022-10-16T14:28:03;24.60;60.30
44982;DHT22;30716;41.740;-70.400;2022-10-16T14:30:31;24.60;60.30
44982;DHT22;30716;41.740;-70.400;2022-10-16T14:33:05;24.60;60.20
44982;DHT22;30716;41.740;-70.400;2022-10-16T14:35:37;24.60;60.20
44982;DHT22;30716;41.740;-70.400;2022-10-16T14:38:05;24.70;60.20
44982;DHT22;30716;41.740;-70.400;2022-10-16T14:40:35;24.70;60.30
44982;DHT22;30716;41.740;-70.400;2022-10-16T14:43:03;24.60;60.20
44982;DHT22;30716;41.740;-70.400;2022-10-16T14:45:32;24.60;60.90
44982;DHT22;30716;41.740;-70.400;2022-10-16T14:48:05;24.60;60.10
44982;DHT22;30716;41.740;-70.400;2022-10-16T14:50:31;24.70;60.20
44982;DHT22;30716;41.740;-70.400;2022-10-16T14:52:58;24.70;60.20
44982;DHT22;30716;41.740;-70.400;2022-10-16T14:55:25;24.70;60.20
44982;DHT22;30716;41.740;-70.400;2022-10-16T14:57:51;24.70;60.20
44982;DHT22;30716;41.740;-70.400;2022-10-16T15:00:23;24.70;60.20
44982;DHT22;30716;41.740;-70.400;2022-10-16T15:02:50;24.70;60.20
44982;DHT22;30716;41.740;-70.400;2022-10-16T15:05:26;24.70;60.20
44982;DHT22;30716;41.740;-70.400;2022-10-16T15:07:53;24.70;60.20
44982;DHT22;30716;41.740;-70.400;2022-10-16T15:10:22;24.70;60.20
44982;DHT22;30716;41.740;-70.400;2022-10-16T15:12:48;24.70;60.20
44982;DHT22;30716;41.740;-70.400;2022-10-16T15:15:30;24.70;60.10
44982;DHT22;30716;41.740;-70.400;2022-10-16T15:17:58;24.80;60.30
44982;DHT22;30716;41.740;-70.400;2022-10-16T15:20:36;24.80;60.20
44982;DHT22;30716;41.740;-70.400;2022-10-16T15:23:05;24.70;60.10
44982;DHT22;30716;41.740;-70.400;2022-10-16T15:25:34;24.70;60.10
44982;DHT22;30716;41.740;-70.400;2022-10-16T15:28:02;24.70;60.10
44982;DHT22;30716;41.740;-70.400;2022-10-16T15:30:32;24.80;60.20
44982;DHT22;30716;41.740;-70.400;2022-10-16T15:35:41;24.80;60.10
44982;DHT22;30716;41.740;-70.400;2022-10-16T15:38:11;24.70;60.00
44982;DHT22;30716;41.740;-70.400;2022-10-16T15:40:38;24.70;60.00
44982;DHT22;30716;41.740;-70.400;2022-10-16T15:43:04;24.80;60.00
44982;DHT22;30716;41.740;-70.400;2022-10-16T15:45:30;24.80;60.10
44982;DHT22;30716;41.740;-70.400;2022-10-16T15:47:56;24.70;60.00
44982;DHT22;30716;41.740;-70.400;2022-10-16T15:50:22;24.70;60.00
44982;DHT22;30716;41.740;-70.400;2022-10-16T15:52:50;24.80;60.00
44982;DHT22;30716;41.740;-70.400;2022-10-16T15:55:16;24.80;60.10
44982;DHT22;30716;41.740;-70.400;2022-10-16T15:57:45;24.80;60.00
44982;DHT22;30716;41.740;-70.400;2022-10-16T16:00:16;24.80;60.20
44982;DHT22;30716;41.740;-70.400;2022-10-16T16:02:44;24.80;60.10
44982;DHT22;30716;41.740;-70.400;2022-10-16T16:05:15;24.70;60.00
44982;DHT22;30716;41.740;-70.400;2022-10-16T16:07:41;24.80;60.10
44982;DHT22;30716;41.740;-70.400;2022-10-16T16:10:09;24.80;60.00
44982;DHT22;30716;41.740;-70.400;2022-10-16T16:12:36;24.80;60.10
44982;DHT22;30716;41.740;-70.400;2022-10-16T16:15:07;24.80;60.10
44982;DHT22;30716;41.740;-70.400;2022-10-16T16:17:34;24.80;60.10
44982;DHT22;30716;41.740;-70.400;2022-10-16T16:20:01;24.70;60.00
44982;DHT22;30716;41.740;-70.400;2022-10-16T16:22:27;24.70;59.90
44982;DHT22;30716;41.740;-70.400;2022-10-16T16:24:53;24.70;60.00
44982;DHT22;30716;41.740;-70.400;2022-10-16T16:27:19;24.80;60.30
44982;DHT22;30716;41.740;-70.400;2022-10-16T16:29:46;24.70;60.00
44982;DHT22;30716;41.740;-70.400;2022-10-16T16:32:13;24.70;60.10
44982;DHT22;30716;41.740;-70.400;2022-10-16T16:34:39;24.70;60.00
44982;DHT22;30716;41.740;-70.400;2022-10-16T16:37:05;24.70;60.00
44982;DHT22;30716;41.740;-70.400;2022-10-16T16:39:31;24.70;60.00
44982;DHT22;30716;41.740;-70.400;2022-10-16T16:41:58;24.80;60.10
44982;DHT22;30716;41.740;-70.400;2022-10-16T16:44:24;24.70;60.00
44982;DHT22;30716;41.740;-70.400;2022-10-16T16:46:50;24.80;60.20
44982;DHT22;30716;41.740;-70.400;2022-10-16T16:49:17;24.80;60.20
44982;DHT22;30716;41.740;-70.400;2022-10-16T16:51:43;24.70;60.10
44982;DHT22;30716;41.740;-70.400;2022-10-16T16:54:10;24.70;60.10
44982;DHT22;30716;41.740;-70.400;2022-10-16T16:56:39;24.70;60.20
44982;DHT22;30716;41.740;-70.400;2022-10-16T16:59:13;24.70;60.20
44982;DHT22;30716;41.740;-70.400;2022-10-16T17:01:40;24.70;60.10
44982;DHT22;30716;41.740;-70.400;2022-10-16T17:04:07;24.70;60.20
44982;DHT22;30716;41.740;-70.400;2022-10-16T17:06:34;24.70;60.20
44982;DHT22;30716;41.740;-70.400;2022-10-16T17:09:02;24.70;60.20